Weather reports worldwide

Advertisment
Edinburgh, United Kingdom (3160): temperature & dewpoint: 11.10.2019 22:00:00 - 17.10.2019 22:00:00 (BST)Edinburgh, United Kingdom (3160): wind speed: 11.10.2019 22:00:00 - 17.10.2019 22:00:00 (BST)Edinburgh, United Kingdom (3160): wind direction: 11.10.2019 22:00:00 - 17.10.2019 22:00:00 (BST)Edinburgh, United Kingdom (3160): visibility: 11.10.2019 22:00:00 - 17.10.2019 22:00:00 (BST)
Date & Time tt [°C] td [°C] ff [km/h] ff [kn] dd vv [km]
17.10.2019 22:00:00 10,0 7,0 13 7 E 10
17.10.2019 21:00:00 10,0 7,0 11 6 E 10
17.10.2019 20:00:00 10,0 6,0 13 7 SE 10
17.10.2019 19:00:00 12,0 7,0 15 8 SE 10
17.10.2019 18:00:00 13,0 7,0 13 7 SE 10
17.10.2019 17:00:00 13,0 7,0 13 7 SSE 10
17.10.2019 16:00:00 13,0 8,0 11 6 S 10
17.10.2019 15:00:00 13,0 8,0 9 5 S 10
17.10.2019 14:00:00 13,0 9,0 15 8 SE 10
17.10.2019 13:00:00 12,0 9,0 8 4 SE 10
17.10.2019 12:00:00 11,0 8,0 11 6 ESE 10
17.10.2019 11:00:00 9,0 9,0 8 4 ENE 10
17.10.2019 10:00:00 6,0 6,0 5 3 NE 10
17.10.2019 09:00:00 2,0 2,0 0 0 N 10
17.10.2019 08:00:00 0,0 0,0 0 0 N 10
17.10.2019 07:00:00 1,0 1,0 4 2 - 10
17.10.2019 06:00:00 1,0 1,0 2 1 - 10
17.10.2019 05:00:00 2,0 2,0 2 1 SSE 10
17.10.2019 04:00:00 1,0 1,0 2 1 NW 10
17.10.2019 03:00:00 2,0 2,0 2 1 - 10
17.10.2019 02:00:00 4,0 3,0 4 2 W 10
17.10.2019 01:00:00 4,0 3,0 5 3 SW 10
17.10.2019 00:00:00 4,0 4,0 8 4 WSW 10
16.10.2019 23:00:00 5,0 5,0 5 3 WSW 10
16.10.2019 22:00:00 5,0 5,0 15 8 WSW 10
16.10.2019 21:00:00 8,0 6,0 13 7 SSW 10
16.10.2019 20:00:00 7,0 6,0 13 7 SW 10
16.10.2019 19:00:00 7,0 6,0 13 7 WSW 10
16.10.2019 18:00:00 10,0 7,0 11 6 WSW 10
16.10.2019 17:00:00 12,0 8,0 15 8 WSW 10
16.10.2019 16:00:00 13,0 8,0 15 8 W 10
16.10.2019 15:00:00 13,0 8,0 21 11 W 10
16.10.2019 14:00:00 12,0 9,0 22 12 WSW 10
16.10.2019 13:00:00 11,0 10,0 16 9 W 10
16.10.2019 12:00:00 12,0 11,0 2 1 - 10
16.10.2019 11:00:00 11,0 11,0 8 4 NE 10
16.10.2019 10:00:00 11,0 10,0 9 5 ENE 10
16.10.2019 09:00:00 11,0 10,0 9 5 NE 10
16.10.2019 08:00:00 10,0 10,0 9 5 E 10
16.10.2019 07:00:00 10,0 9,0 9 5 ENE 10
16.10.2019 06:00:00 9,0 9,0 11 6 ENE 10
16.10.2019 05:00:00 10,0 9,0 13 7 ENE 10
16.10.2019 04:00:00 9,0 8,0 11 6 ENE 10
16.10.2019 03:00:00 8,0 7,0 9 5 ENE 10
16.10.2019 02:00:00 9,0 7,0 8 4 ENE 10
16.10.2019 01:00:00 9,0 8,0 8 4 E 10
16.10.2019 00:00:00 10,0 8,0 9 5 SE 10
15.10.2019 23:00:00 10,0 8,0 9 5 ESE 10
15.10.2019 22:00:00 10,0 8,0 8 4 SSE 10
15.10.2019 21:00:00 11,0 9,0 8 4 SSE 10
15.10.2019 20:00:00 11,0 9,0 4 2 - 10
15.10.2019 19:00:00 11,0 10,0 5 3 ENE 10
15.10.2019 18:00:00 11,0 10,0 8 4 NE 10
15.10.2019 17:00:00 12,0 10,0 9 5 NE 10
15.10.2019 16:00:00 13,0 10,0 8 4 E 10
15.10.2019 15:00:00 12,0 9,0 8 4 ESE 10
15.10.2019 14:00:00 11,0 9,0 2 1 - 10
15.10.2019 13:00:00 12,0 10,0 4 2 - 10
15.10.2019 12:00:00 10,0 10,0 4 2 - 10
15.10.2019 11:00:00 9,0 9,0 5 3 - 7
15.10.2019 10:00:00 9,0 9,0 9 5 SW 4,5
15.10.2019 09:00:00 8,0 8,0 5 3 - 4,9
15.10.2019 08:00:00 8,0 8,0 4 2 WSW 7
15.10.2019 07:00:00 6,0 6,0 2 1 - 10
15.10.2019 06:00:00 6,0 6,0 4 2 NNW 10
15.10.2019 05:00:00 7,0 7,0 2 1 - 10
15.10.2019 04:00:00 6,0 6,0 2 1 - 10
15.10.2019 03:00:00 6,0 6,0 2 1 - 10
15.10.2019 02:00:00 4,0 4,0 4 2 - 0,4
15.10.2019 01:00:00 4,0 4,0 0 0 N 0,3
15.10.2019 00:00:00 5,0 5,0 2 1 SW 10
14.10.2019 23:00:00 7,0 7,0 4 2 - 10
14.10.2019 22:00:00 6,0 6,0 4 2 - 10
14.10.2019 21:00:00 8,0 8,0 4 2 E 10
14.10.2019 20:00:00 9,0 9,0 8 4 E 10
14.10.2019 19:00:00 10,0 9,0 13 7 NE 10
14.10.2019 18:00:00 10,0 9,0 13 7 NE 10
14.10.2019 17:00:00 11,0 9,0 15 8 NE 10
14.10.2019 16:00:00 11,0 9,0 15 8 NE 10
14.10.2019 15:00:00 12,0 8,0 11 6 NE 10
14.10.2019 14:00:00 11,0 8,0 11 6 ENE 10
14.10.2019 13:00:00 12,0 9,0 9 5 NE 10
14.10.2019 12:00:00 11,0 8,0 4 2 - 10
14.10.2019 11:00:00 9,0 8,0 4 2 - 10
14.10.2019 10:00:00 6,0 6,0 2 1 - 10
14.10.2019 09:00:00 4,0 4,0 0 0 N 10
14.10.2019 08:00:00 3,0 3,0 5 3 - 10
14.10.2019 07:00:00 5,0 5,0 4 2 W 10
14.10.2019 06:00:00 3,0 3,0 4 2 - 10
14.10.2019 05:00:00 5,0 5,0 4 2 SE 10
14.10.2019 04:00:00 7,0 7,0 5 3 WNW 10
14.10.2019 03:00:00 5,0 5,0 11 6 SW 9
14.10.2019 02:00:00 6,0 6,0 4 2 - 10
14.10.2019 01:00:00 8,0 8,0 8 4 W 10
14.10.2019 00:00:00 7,0 7,0 8 4 W 10
13.10.2019 23:00:00 9,0 9,0 9 5 SW 10
13.10.2019 22:00:00 9,0 9,0 9 5 NW 10
13.10.2019 21:00:00 9,0 9,0 5 3 - 5
13.10.2019 20:00:00 10,0 10,0 4 2 - 3,5
13.10.2019 19:00:00 10,0 10,0 2 1 - 4,9
13.10.2019 18:00:00 10,0 10,0 8 4 ENE 6
13.10.2019 17:00:00 11,0 10,0 9 5 E 6
13.10.2019 16:00:00 11,0 10,0 15 8 ENE 10
13.10.2019 15:00:00 11,0 10,0 16 9 ENE 10
13.10.2019 14:00:00 11,0 10,0 16 9 ENE 10
13.10.2019 13:00:00 10,0 10,0 11 6 ENE 10
13.10.2019 12:00:00 10,0 9,0 11 6 NE 10
13.10.2019 11:00:00 8,0 8,0 4 2 - 10
13.10.2019 10:00:00 6,0 6,0 4 2 WSW 10
13.10.2019 09:00:00 4,0 4,0 2 1 NNE 10
13.10.2019 08:00:00 4,0 4,0 4 2 - 10
13.10.2019 07:00:00 4,0 4,0 4 2 WSW 10
13.10.2019 06:00:00 5,0 5,0 4 2 W 0,7
13.10.2019 05:00:00 5,0 5,0 2 1 W 10
13.10.2019 04:00:00 5,0 5,0 2 1 ESE 10
13.10.2019 03:00:00 5,0 5,0 2 1 - 10
13.10.2019 02:00:00 5,0 5,0 2 1 SE 10
13.10.2019 01:00:00 6,0 5,0 5 3 SW 10
13.10.2019 00:00:00 7,0 6,0 4 2 - 10
12.10.2019 23:00:00 8,0 7,0 5 3 - 10
12.10.2019 22:00:00 8,0 6,0 5 3 - 10
12.10.2019 21:00:00 9,0 7,0 5 3 W 10
12.10.2019 20:00:00 8,0 7,0 8 4 W 10
12.10.2019 19:00:00 8,0 6,0 9 5 SW 10
12.10.2019 18:00:00 11,0 7,0 15 8 WSW 10
12.10.2019 17:00:00 13,0 7,0 22 12 WSW 10
12.10.2019 16:00:00 13,0 7,0 29 16 SW 10
12.10.2019 15:00:00 14,0 8,0 24 13 WSW 10
12.10.2019 14:00:00 13,0 8,0 29 16 WSW 10
12.10.2019 13:00:00 13,0 9,0 26 14 WSW 10
12.10.2019 12:00:00 13,0 9,0 29 16 WSW 10
12.10.2019 11:00:00 11,0 9,0 28 15 WSW 10
12.10.2019 10:00:00 10,0 8,0 18 10 WSW 10
12.10.2019 09:00:00 8,0 8,0 11 6 WSW 10
12.10.2019 08:00:00 9,0 8,0 16 9 WSW 10
12.10.2019 07:00:00 7,0 6,0 8 4 SSW 10
12.10.2019 06:00:00 7,0 6,0 11 6 WSW 10
12.10.2019 05:00:00 7,0 6,0 13 7 WSW 10
12.10.2019 04:00:00 8,0 7,0 13 7 W 10
12.10.2019 03:00:00 8,0 7,0 16 9 WSW 10
12.10.2019 02:00:00 9,0 8,0 26 14 WSW 10
12.10.2019 01:00:00 9,0 8,0 21 11 WSW 10
12.10.2019 00:00:00 9,0 8,0 18 10 WSW 10
11.10.2019 23:00:00 10,0 8,0 21 11 WSW 10
11.10.2019 22:00:00 10,0 8,0 28 15 WSW 10

tt = temperature
td = dewpoint
ff = wind speed
dd = wind direction
vv = visibility

Next stations